createdAt,value
2022-11-16T00:04:55.336Z,1.4
2022-11-16T00:10:02.160Z,1.4
2022-11-16T00:15:39.339Z,1.3
2022-11-16T00:21:00.886Z,1.3
2022-11-16T00:26:37.218Z,1.4
2022-11-16T00:31:59.853Z,1.4
2022-11-16T00:37:22.118Z,1.6
2022-11-16T00:42:43.908Z,1.6
2022-11-16T00:48:20.742Z,1.5
2022-11-16T00:53:58.709Z,1.5
2022-11-16T01:04:26.091Z,1.5
2022-11-16T01:10:04.860Z,1.4
2022-11-16T01:15:26.142Z,1.2
2022-11-16T01:21:04.182Z,1.1
2022-11-16T01:26:26.449Z,0.9
2022-11-16T01:32:02.780Z,0.8
2022-11-16T01:37:39.884Z,0.7
2022-11-16T01:43:18.154Z,0.5
2022-11-16T01:48:55.124Z,0.7
2022-11-16T01:58:53.012Z,0.4
2022-11-16T02:04:14.943Z,0.6
2022-11-16T02:09:51.982Z,0.7
2022-11-16T02:14:57.967Z,0.8
2022-11-16T02:20:35.616Z,0.7
2022-11-16T02:26:12.720Z,0.7
2022-11-16T02:31:50.010Z,0.8
2022-11-16T02:37:26.431Z,0.8
2022-11-16T02:42:48.900Z,0.8
2022-11-16T02:53:16.524Z,0.9
2022-11-16T02:58:53.751Z,0.9
2022-11-16T03:04:34.162Z,1
2022-11-16T03:10:10.737Z,1.1
2022-11-16T03:15:47.751Z,1.3
2022-11-16T03:21:25.906Z,1.4
2022-11-16T03:27:02.258Z,1.3
2022-11-16T03:32:25.568Z,1.4
2022-11-16T03:38:02.772Z,1.2
2022-11-16T03:43:23.867Z,1.3
2022-11-16T03:48:45.649Z,1.3
2022-11-16T03:54:07.859Z,1.4
2022-11-16T03:59:17.593Z,1.4
2022-11-16T04:04:39.553Z,1.3
2022-11-16T04:10:17.901Z,1.3
2022-11-16T04:15:55.020Z,1.3
2022-11-16T04:21:30.814Z,1.4
2022-11-16T04:26:52.687Z,1.5
2022-11-16T04:32:29.854Z,1.7
2022-11-16T04:38:07.516Z,1.8
2022-11-16T04:43:44.910Z,1.8
2022-11-16T04:49:06.889Z,1.8
2022-11-16T04:54:43.689Z,1.7
2022-11-16T04:59:35.258Z,1.7
2022-11-16T05:05:03.661Z,1.8
2022-11-16T05:10:28.197Z,1.9
2022-11-16T05:15:50.175Z,1.9
2022-11-16T05:21:11.587Z,2
2022-11-16T05:26:33.488Z,2
2022-11-16T05:31:40.766Z,2
2022-11-16T05:36:46.915Z,2.2
2022-11-16T05:42:08.588Z,2.2
2022-11-16T05:47:45.076Z,2.2
2022-11-16T05:53:22.788Z,2.1
2022-11-16T05:58:44.412Z,2.3
2022-11-16T06:04:06.475Z,2.4
2022-11-16T06:09:45.632Z,2.5
2022-11-16T06:15:21.885Z,2.6
2022-11-16T06:21:19.257Z,2.5
2022-11-16T06:26:56.785Z,2.6
2022-11-16T06:32:23.739Z,2.8
2022-11-16T06:38:09.563Z,2.9
2022-11-16T06:43:47.234Z,3.2
2022-11-16T06:49:24.936Z,3.3
2022-11-16T06:56:04.925Z,3.4
2022-11-16T07:01:45.755Z,3.6
2022-11-16T07:07:23.428Z,3.8
2022-11-16T07:13:07.042Z,3.8
2022-11-16T07:18:48.439Z,3.8
2022-11-16T07:23:54.837Z,4.1
2022-11-16T07:29:39.151Z,4.1
2022-11-16T07:35:16.900Z,4.2
2022-11-16T07:40:55.101Z,4.6
2022-11-16T07:47:04.062Z,4.8
2022-11-16T07:52:42.059Z,5.1
2022-11-16T07:58:25.920Z,5.1
2022-11-16T08:04:10.110Z,5.2
2022-11-16T08:09:49.448Z,5.5
2022-11-16T08:15:11.860Z,5.9
2022-11-16T08:20:51.905Z,5.4
2022-11-16T08:26:32.976Z,5.7
2022-11-16T08:31:55.352Z,6.6
2022-11-16T08:37:41.592Z,6.4
2022-11-16T08:43:04.721Z,6.9
2022-11-16T08:48:54.289Z,7
2022-11-16T08:55:55.221Z,6.6
2022-11-16T09:01:34.388Z,7.1
2022-11-16T09:07:12.673Z,7.3
2022-11-16T09:19:55.109Z,7.4
2022-11-16T09:25:33.855Z,8.1
2022-11-16T09:31:12.861Z,8.1
2022-11-16T09:36:36.259Z,8.6
2022-11-16T09:44:18.288Z,9.1
2022-11-16T09:50:07.787Z,9.3
2022-11-16T09:57:12.716Z,11.1
2022-11-16T10:02:57.834Z,11.6
2022-11-16T10:08:41.950Z,11.6
2022-11-16T10:14:21.180Z,11.3
2022-11-16T10:19:58.993Z,11.8
2022-11-16T10:25:38.461Z,11.7
2022-11-16T10:31:05.435Z,12.1
2022-11-16T10:36:36.105Z,12.9
2022-11-16T10:42:22.620Z,11.9
2022-11-16T10:47:33.868Z,12.1
2022-11-16T10:53:13.758Z,12.1
2022-11-16T10:58:59.304Z,11.8
2022-11-16T11:04:45.563Z,11.6
2022-11-16T11:10:27.032Z,11.8
2022-11-16T11:16:13.513Z,12.4
2022-11-16T11:21:53.428Z,12.9
2022-11-16T11:28:07.560Z,11.8
2022-11-16T11:33:53.146Z,11.9
2022-11-16T11:40:59.392Z,11.3
2022-11-16T11:47:50.761Z,10.9
2022-11-16T11:53:35.733Z,10.8
2022-11-16T11:59:02.285Z,11.4
2022-11-16T12:04:46.331Z,10.9
2022-11-16T12:10:10.511Z,10.8
2022-11-16T12:15:55.943Z,10.8
2022-11-16T12:21:34.218Z,10.8
2022-11-16T12:27:19.952Z,11
2022-11-16T12:33:00.821Z,11
2022-11-16T12:38:42.920Z,11.2
2022-11-16T12:44:22.163Z,11.2
2022-11-16T12:50:04.012Z,11.4
2022-11-16T12:56:20.369Z,11.4
2022-11-16T13:01:43.568Z,11.4
2022-11-16T13:07:27.524Z,11.3
2022-11-16T13:13:35.251Z,11.3
2022-11-16T13:19:16.098Z,11.4
2022-11-16T13:25:00.770Z,11.3
2022-11-16T13:30:39.657Z,11.9
2022-11-16T13:36:24.950Z,11.8
2022-11-16T13:42:03.486Z,11.6
2022-11-16T13:48:22.577Z,11.6
2022-11-16T13:55:52.768Z,11.6
2022-11-16T14:01:35.173Z,11.4
2022-11-16T14:07:17.040Z,11.4
2022-11-16T14:12:42.207Z,11.6
2022-11-16T14:18:12.181Z,11.3
2022-11-16T14:23:50.507Z,11.4
2022-11-16T14:29:32.782Z,11.3
2022-11-16T14:35:16.208Z,11.3
2022-11-16T14:40:38.774Z,11.2
2022-11-16T14:46:29.666Z,11.1
2022-11-16T14:52:09.283Z,10.9
2022-11-16T14:57:47.953Z,10.9
2022-11-16T15:03:34.462Z,10.8
2022-11-16T15:08:57.391Z,10.8
2022-11-16T15:14:19.783Z,10.7
2022-11-16T15:20:03.498Z,10.6
2022-11-16T15:31:07.824Z,10.4
2022-11-16T15:36:51.110Z,10.4
2022-11-16T15:42:36.222Z,10.3
2022-11-16T15:48:41.480Z,10.1
2022-11-16T15:53:54.008Z,10.2
2022-11-16T15:59:17.262Z,9.9
2022-11-16T16:04:56.055Z,10.1
2022-11-16T16:15:26.355Z,9.8
2022-11-16T16:20:54.384Z,9.6
2022-11-16T16:26:39.646Z,9.6
2022-11-16T16:31:46.840Z,9.6
2022-11-16T16:37:14.208Z,9.6
2022-11-16T16:42:37.650Z,9.6
2022-11-16T16:48:20.672Z,9.5
2022-11-16T16:53:52.095Z,9.4
2022-11-16T16:59:04.236Z,9.3
2022-11-16T17:04:33.810Z,9.1
2022-11-16T17:10:02.044Z,8.9
2022-11-16T17:15:34.661Z,8.9
2022-11-16T17:21:02.162Z,8.8
2022-11-16T17:26:25.685Z,8.8
2022-11-16T17:37:18.421Z,8.7
2022-11-16T17:42:58.516Z,8.8
2022-11-16T17:48:40.588Z,8.7
2022-11-16T17:53:54.283Z,8.7
2022-11-16T17:59:45.721Z,8.8
2022-11-16T18:05:23.803Z,8.7
2022-11-16T18:16:57.550Z,8.7
2022-11-16T18:22:36.556Z,8.7
2022-11-16T18:28:15.024Z,8.7
2022-11-16T18:33:54.011Z,8.6
2022-11-16T18:44:13.666Z,8.6
2022-11-16T18:49:51.782Z,8.6
2022-11-16T18:55:34.976Z,8.7
2022-11-16T19:01:28.923Z,8.8
2022-11-16T19:07:10.008Z,8.8
2022-11-16T19:12:39.429Z,8.7
2022-11-16T19:18:54.652Z,8.7
2022-11-16T19:24:18.333Z,8.6
2022-11-16T19:29:42.074Z,8.6
2022-11-16T19:35:23.949Z,8.6
2022-11-16T19:40:45.603Z,8.6
2022-11-16T19:46:08.564Z,8.6
2022-11-16T19:51:54.024Z,8.5
2022-11-16T19:57:17.476Z,8.5
2022-11-16T20:02:56.869Z,8.5
2022-11-16T20:08:20.314Z,8.6
2022-11-16T20:13:57.875Z,8.6
2022-11-16T20:19:36.281Z,8.5
2022-11-16T20:25:14.876Z,8.6
2022-11-16T20:30:59.647Z,8.6
2022-11-16T20:36:22.583Z,8.7
2022-11-16T20:42:01.110Z,8.6
2022-11-16T20:47:09.596Z,8.7
2022-11-16T20:52:52.478Z,8.7
2022-11-16T20:58:37.909Z,8.6
2022-11-16T21:04:15.850Z,8.6
2022-11-16T21:09:55.003Z,8.5
2022-11-16T21:15:35.994Z,8.6
2022-11-16T21:21:48.657Z,8.5
2022-11-16T21:27:27.300Z,8.6
2022-11-16T21:32:56.489Z,8.5
2022-11-16T21:38:39.065Z,8.6
2022-11-16T21:44:18.024Z,8.6
2022-11-16T21:49:24.914Z,8.7
2022-11-16T21:55:36.784Z,8.6
2022-11-16T22:01:00.222Z,8.8
2022-11-16T22:06:44.429Z,8.6
2022-11-16T22:12:07.283Z,8.8
2022-11-16T22:17:45.374Z,8.7
2022-11-16T22:23:08.359Z,8.6
2022-11-16T22:29:04.119Z,8.6
2022-11-16T22:34:46.701Z,8.6
2022-11-16T22:40:28.969Z,8.7
2022-11-16T22:46:07.189Z,8.6
2022-11-16T22:51:47.873Z,8.6
2022-11-16T22:57:10.317Z,8.6
2022-11-16T23:02:33.243Z,8.6
2022-11-16T23:08:12.193Z,8.5
2022-11-16T23:13:40.725Z,8.4
2022-11-16T23:19:18.499Z,8.5
2022-11-16T23:25:00.302Z,8.5
2022-11-16T23:30:45.085Z,8.5
2022-11-16T23:36:23.865Z,8.4
2022-11-16T23:42:02.261Z,8.5
2022-11-16T23:47:24.394Z,8.5
2022-11-16T23:58:10.309Z,8.7
